sensor_id;sensor_type;location;lat;lon;timestamp;temperature;humidity
13850;DHT22;6995;52.618;13.488;2023-02-18T09:32:08;6.80;1.00
13850;DHT22;6995;52.618;13.488;2023-02-18T09:45:09;7.00;1.00
13850;DHT22;6995;52.618;13.488;2023-02-18T11:26:31;7.60;1.00
13850;DHT22;6995;52.618;13.488;2023-02-18T11:31:47;7.50;1.00
13850;DHT22;6995;52.618;13.488;2023-02-18T11:34:25;7.70;1.00
13850;DHT22;6995;52.618;13.488;2023-02-18T11:36:52;7.60;1.00
13850;DHT22;6995;52.618;13.488;2023-02-18T11:39:28;7.70;1.00
13850;DHT22;6995;52.618;13.488;2023-02-18T11:42:00;7.60;1.00
13850;DHT22;6995;52.618;13.488;2023-02-18T11:44:35;7.60;1.00
13850;DHT22;6995;52.618;13.488;2023-02-18T11:49:37;7.70;1.00
13850;DHT22;6995;52.618;13.488;2023-02-18T11:52:22;7.70;1.00
13850;DHT22;6995;52.618;13.488;2023-02-18T11:55:23;7.70;1.00
13850;DHT22;6995;52.618;13.488;2023-02-18T11:58:02;7.70;1.00
13850;DHT22;6995;52.618;13.488;2023-02-18T12:03:14;7.50;1.00
13850;DHT22;6995;52.618;13.488;2023-02-18T12:05:43;7.50;1.00
13850;DHT22;6995;52.618;13.488;2023-02-18T12:08:24;7.70;1.00
13850;DHT22;6995;52.618;13.488;2023-02-18T12:11:06;7.70;1.00
13850;DHT22;6995;52.618;13.488;2023-02-18T12:13:58;7.70;1.00
13850;DHT22;6995;52.618;13.488;2023-02-18T12:16:33;7.60;1.00
13850;DHT22;6995;52.618;13.488;2023-02-18T12:22:04;7.80;1.00
13850;DHT22;6995;52.618;13.488;2023-02-18T12:33:32;7.90;99.90
13850;DHT22;6995;52.618;13.488;2023-02-18T12:44:40;8.20;99.90
13850;DHT22;6995;52.618;13.488;2023-02-18T12:47:29;8.20;99.90
13850;DHT22;6995;52.618;13.488;2023-02-18T12:56:57;8.60;99.90
13850;DHT22;6995;52.618;13.488;2023-02-18T13:13:23;9.40;99.90
13850;DHT22;6995;52.618;13.488;2023-02-18T13:21:15;9.70;99.90
13850;DHT22;6995;52.618;13.488;2023-02-18T13:23:57;9.80;99.90
13850;DHT22;6995;52.618;13.488;2023-02-18T13:26:28;10.00;99.90
13850;DHT22;6995;52.618;13.488;2023-02-18T13:29:21;10.00;99.90
13850;DHT22;6995;52.618;13.488;2023-02-18T13:32:13;10.00;99.90
13850;DHT22;6995;52.618;13.488;2023-02-18T13:34:54;10.00;99.90
13850;DHT22;6995;52.618;13.488;2023-02-18T13:40:21;10.10;99.90
13850;DHT22;6995;52.618;13.488;2023-02-18T13:42:52;10.10;99.90
13850;DHT22;6995;52.618;13.488;2023-02-18T13:45:25;10.20;99.90
13850;DHT22;6995;52.618;13.488;2023-02-18T13:47:52;10.20;99.90
13850;DHT22;6995;52.618;13.488;2023-02-18T13:58:19;10.30;99.90
13850;DHT22;6995;52.618;13.488;2023-02-18T14:01:13;10.30;99.90
13850;DHT22;6995;52.618;13.488;2023-02-18T14:06:27;10.30;99.90
13850;DHT22;6995;52.618;13.488;2023-02-18T14:11:55;10.40;99.90
13850;DHT22;6995;52.618;13.488;2023-02-18T14:22:31;10.40;99.90
13850;DHT22;6995;52.618;13.488;2023-02-18T14:27:39;10.40;99.90
13850;DHT22;6995;52.618;13.488;2023-02-18T14:30:28;10.30;99.90
13850;DHT22;6995;52.618;13.488;2023-02-18T14:32:58;10.30;99.90
13850;DHT22;6995;52.618;13.488;2023-02-18T14:35:42;10.40;99.90
13850;DHT22;6995;52.618;13.488;2023-02-18T14:44:15;10.50;99.90
13850;DHT22;6995;52.618;13.488;2023-02-18T14:49:53;10.50;99.90
13850;DHT22;6995;52.618;13.488;2023-02-18T14:52:32;10.50;99.90
13850;DHT22;6995;52.618;13.488;2023-02-18T14:55:01;10.40;99.90
13850;DHT22;6995;52.618;13.488;2023-02-18T14:57:40;10.40;99.90
13850;DHT22;6995;52.618;13.488;2023-02-18T15:02:52;10.30;99.90
13850;DHT22;6995;52.618;13.488;2023-02-18T15:05:23;10.40;99.90
13850;DHT22;6995;52.618;13.488;2023-02-18T15:08:16;10.40;99.90
13850;DHT22;6995;52.618;13.488;2023-02-18T15:10:51;10.30;99.90
13850;DHT22;6995;52.618;13.488;2023-02-18T15:13:31;10.30;99.90
13850;DHT22;6995;52.618;13.488;2023-02-18T15:16:12;10.20;99.90
13850;DHT22;6995;52.618;13.488;2023-02-18T15:22:03;10.20;99.90
13850;DHT22;6995;52.618;13.488;2023-02-18T15:24:32;10.10;99.90
13850;DHT22;6995;52.618;13.488;2023-02-18T15:27:04;10.00;99.90
13850;DHT22;6995;52.618;13.488;2023-02-18T15:29:35;9.90;99.90
13850;DHT22;6995;52.618;13.488;2023-02-18T15:32:14;9.80;99.90
13850;DHT22;6995;52.618;13.488;2023-02-18T15:34:45;9.70;99.70
13850;DHT22;6995;52.618;13.488;2023-02-18T15:37:14;9.70;99.90
13850;DHT22;6995;52.618;13.488;2023-02-18T15:39:41;9.70;99.90
13850;DHT22;6995;52.618;13.488;2023-02-18T15:42:24;9.70;99.90
13850;DHT22;6995;52.618;13.488;2023-02-18T15:45:00;9.60;99.90
13850;DHT22;6995;52.618;13.488;2023-02-18T15:47:27;9.50;90.80
13850;DHT22;6995;52.618;13.488;2023-02-18T15:49:59;9.50;99.90
13850;DHT22;6995;52.618;13.488;2023-02-18T15:52:28;9.40;99.90
13850;DHT22;6995;52.618;13.488;2023-02-18T15:55:00;9.30;99.90
13850;DHT22;6995;52.618;13.488;2023-02-18T15:57:28;9.20;99.90
13850;DHT22;6995;52.618;13.488;2023-02-18T15:59:59;9.20;99.90
13850;DHT22;6995;52.618;13.488;2023-02-18T16:02:31;9.10;99.90
13850;DHT22;6995;52.618;13.488;2023-02-18T16:04:59;9.10;99.90
13850;DHT22;6995;52.618;13.488;2023-02-18T16:07:47;8.90;99.90
13850;DHT22;6995;52.618;13.488;2023-02-18T16:12:56;8.70;99.90
13850;DHT22;6995;52.618;13.488;2023-02-18T16:15:30;8.70;99.90
13850;DHT22;6995;52.618;13.488;2023-02-18T16:17:56;8.70;99.90
13850;DHT22;6995;52.618;13.488;2023-02-18T16:20:31;8.60;99.90
13850;DHT22;6995;52.618;13.488;2023-02-18T16:23:11;8.50;99.90
13850;DHT22;6995;52.618;13.488;2023-02-18T16:25:42;8.40;99.90
13850;DHT22;6995;52.618;13.488;2023-02-18T16:28:15;8.40;99.90
13850;DHT22;6995;52.618;13.488;2023-02-18T16:30:42;8.40;99.90
13850;DHT22;6995;52.618;13.488;2023-02-18T16:33:09;8.30;99.90
13850;DHT22;6995;52.618;13.488;2023-02-18T16:35:35;8.20;99.90
13850;DHT22;6995;52.618;13.488;2023-02-18T16:38:01;8.20;99.90
13850;DHT22;6995;52.618;13.488;2023-02-18T16:40:38;8.10;99.90
13850;DHT22;6995;52.618;13.488;2023-02-18T16:43:16;8.00;99.90
13850;DHT22;6995;52.618;13.488;2023-02-18T16:45:47;7.90;99.90
13850;DHT22;6995;52.618;13.488;2023-02-18T16:48:19;7.90;99.90
13850;DHT22;6995;52.618;13.488;2023-02-18T16:50:45;7.90;99.90
13850;DHT22;6995;52.618;13.488;2023-02-18T16:53:11;7.80;99.90
13850;DHT22;6995;52.618;13.488;2023-02-18T16:55:38;7.70;99.90
13850;DHT22;6995;52.618;13.488;2023-02-18T16:58:04;7.70;99.90
13850;DHT22;6995;52.618;13.488;2023-02-18T17:00:32;7.70;99.90
13850;DHT22;6995;52.618;13.488;2023-02-18T17:02:58;7.60;99.90
13850;DHT22;6995;52.618;13.488;2023-02-18T17:05:30;7.60;99.90
13850;DHT22;6995;52.618;13.488;2023-02-18T17:08:05;7.60;99.90
13850;DHT22;6995;52.618;13.488;2023-02-18T17:10:37;7.50;99.90
13850;DHT22;6995;52.618;13.488;2023-02-18T17:13:04;7.40;99.90
13850;DHT22;6995;52.618;13.488;2023-02-18T17:15:35;7.40;99.90
13850;DHT22;6995;52.618;13.488;2023-02-18T17:18:04;7.30;99.90
13850;DHT22;6995;52.618;13.488;2023-02-18T17:20:31;7.30;99.90
13850;DHT22;6995;52.618;13.488;2023-02-18T17:22:58;7.30;99.90
13850;DHT22;6995;52.618;13.488;2023-02-18T17:25:44;7.30;99.90
13850;DHT22;6995;52.618;13.488;2023-02-18T17:28:10;7.30;99.90
13850;DHT22;6995;52.618;13.488;2023-02-18T17:30:39;7.30;99.90
13850;DHT22;6995;52.618;13.488;2023-02-18T17:33:06;7.20;99.90
13850;DHT22;6995;52.618;13.488;2023-02-18T17:35:36;7.30;99.90
13850;DHT22;6995;52.618;13.488;2023-02-18T17:38:08;7.20;99.90
13850;DHT22;6995;52.618;13.488;2023-02-18T17:40:34;7.20;99.90
13850;DHT22;6995;52.618;13.488;2023-02-18T17:43:00;7.20;99.90
13850;DHT22;6995;52.618;13.488;2023-02-18T17:45:38;7.20;99.90
13850;DHT22;6995;52.618;13.488;2023-02-18T17:48:04;7.20;99.90
13850;DHT22;6995;52.618;13.488;2023-02-18T17:50:30;7.20;99.90
13850;DHT22;6995;52.618;13.488;2023-02-18T17:52:56;7.20;99.90
13850;DHT22;6995;52.618;13.488;2023-02-18T17:55:29;7.10;99.90
13850;DHT22;6995;52.618;13.488;2023-02-18T17:57:59;7.10;99.90
13850;DHT22;6995;52.618;13.488;2023-02-18T18:00:28;7.20;99.90
13850;DHT22;6995;52.618;13.488;2023-02-18T18:02:54;7.10;99.90
13850;DHT22;6995;52.618;13.488;2023-02-18T18:05:25;7.20;99.90
13850;DHT22;6995;52.618;13.488;2023-02-18T18:07:51;7.20;99.90
13850;DHT22;6995;52.618;13.488;2023-02-18T18:10:19;7.10;93.80
13850;DHT22;6995;52.618;13.488;2023-02-18T18:12:47;7.10;99.90
13850;DHT22;6995;52.618;13.488;2023-02-18T18:15:45;7.10;99.90
13850;DHT22;6995;52.618;13.488;2023-02-18T18:18:12;7.00;74.00
13850;DHT22;6995;52.618;13.488;2023-02-18T18:20:40;7.00;70.40
13850;DHT22;6995;52.618;13.488;2023-02-18T18:23:07;7.00;67.60
13850;DHT22;6995;52.618;13.488;2023-02-18T18:25:37;6.90;96.90
13850;DHT22;6995;52.618;13.488;2023-02-18T18:28:03;6.90;77.50
13850;DHT22;6995;52.618;13.488;2023-02-18T18:30:33;6.90;99.50
13850;DHT22;6995;52.618;13.488;2023-02-18T18:33:00;6.90;89.60
13850;DHT22;6995;52.618;13.488;2023-02-18T18:35:29;6.90;83.40
13850;DHT22;6995;52.618;13.488;2023-02-18T18:37:56;6.90;81.80
13850;DHT22;6995;52.618;13.488;2023-02-18T18:40:23;6.90;99.90
13850;DHT22;6995;52.618;13.488;2023-02-18T18:42:50;6.90;69.30
13850;DHT22;6995;52.618;13.488;2023-02-18T18:45:28;6.80;26.20
13850;DHT22;6995;52.618;13.488;2023-02-18T18:47:56;6.90;35.10
13850;DHT22;6995;52.618;13.488;2023-02-18T18:50:23;6.80;23.40
13850;DHT22;6995;52.618;13.488;2023-02-18T18:52:50;6.80;1.00
13850;DHT22;6995;52.618;13.488;2023-02-18T18:55:23;6.80;1.00
13850;DHT22;6995;52.618;13.488;2023-02-18T18:57:49;6.80;1.00
13850;DHT22;6995;52.618;13.488;2023-02-18T19:00:16;6.80;1.00
13850;DHT22;6995;52.618;13.488;2023-02-18T19:02:42;6.90;1.00
13850;DHT22;6995;52.618;13.488;2023-02-18T19:05:18;6.70;1.00
13850;DHT22;6995;52.618;13.488;2023-02-18T19:07:44;6.70;1.00
13850;DHT22;6995;52.618;13.488;2023-02-18T19:10:10;6.60;1.00
13850;DHT22;6995;52.618;13.488;2023-02-18T19:12:36;6.60;1.00
13850;DHT22;6995;52.618;13.488;2023-02-18T19:15:02;6.60;1.00
13850;DHT22;6995;52.618;13.488;2023-02-18T19:17:28;6.50;1.00
13850;DHT22;6995;52.618;13.488;2023-02-18T19:19:53;6.50;1.00
13850;DHT22;6995;52.618;13.488;2023-02-18T19:22:19;6.50;1.00
13850;DHT22;6995;52.618;13.488;2023-02-18T19:24:44;6.50;1.00
13850;DHT22;6995;52.618;13.488;2023-02-18T19:27:13;6.50;1.00
13850;DHT22;6995;52.618;13.488;2023-02-18T19:29:41;6.50;1.00
13850;DHT22;6995;52.618;13.488;2023-02-18T19:32:07;6.50;1.00
13850;DHT22;6995;52.618;13.488;2023-02-18T19:34:33;6.50;1.00
13850;DHT22;6995;52.618;13.488;2023-02-18T19:36:58;6.50;1.00
13850;DHT22;6995;52.618;13.488;2023-02-18T19:39:24;6.50;1.00
13850;DHT22;6995;52.618;13.488;2023-02-18T19:41:50;6.50;1.00
13850;DHT22;6995;52.618;13.488;2023-02-18T19:44:15;6.50;1.00
13850;DHT22;6995;52.618;13.488;2023-02-18T19:46:43;6.50;1.00
13850;DHT22;6995;52.618;13.488;2023-02-18T19:49:09;6.50;1.00
13850;DHT22;6995;52.618;13.488;2023-02-18T19:51:34;6.50;1.00
13850;DHT22;6995;52.618;13.488;2023-02-18T19:54:00;6.50;1.00
13850;DHT22;6995;52.618;13.488;2023-02-18T19:56:26;6.50;1.00
13850;DHT22;6995;52.618;13.488;2023-02-18T19:58:54;6.50;1.00
13850;DHT22;6995;52.618;13.488;2023-02-18T20:01:21;6.50;1.00
13850;DHT22;6995;52.618;13.488;2023-02-18T20:03:48;6.40;1.00
13850;DHT22;6995;52.618;13.488;2023-02-18T20:06:17;6.50;1.00
13850;DHT22;6995;52.618;13.488;2023-02-18T20:08:44;6.50;1.00
13850;DHT22;6995;52.618;13.488;2023-02-18T20:11:10;6.40;1.00
13850;DHT22;6995;52.618;13.488;2023-02-18T20:13:35;6.40;1.00
13850;DHT22;6995;52.618;13.488;2023-02-18T20:16:05;6.40;1.00
13850;DHT22;6995;52.618;13.488;2023-02-18T20:18:31;6.40;1.00
13850;DHT22;6995;52.618;13.488;2023-02-18T20:20:57;6.40;1.00
13850;DHT22;6995;52.618;13.488;2023-02-18T20:23:22;6.40;1.00
13850;DHT22;6995;52.618;13.488;2023-02-18T20:25:48;6.40;1.00
13850;DHT22;6995;52.618;13.488;2023-02-18T20:28:17;6.40;1.00
13850;DHT22;6995;52.618;13.488;2023-02-18T20:30:43;6.40;1.00
13850;DHT22;6995;52.618;13.488;2023-02-18T20:33:09;6.40;1.00
13850;DHT22;6995;52.618;13.488;2023-02-18T20:35:34;6.40;1.00
13850;DHT22;6995;52.618;13.488;2023-02-18T20:38:00;6.40;1.00
13850;DHT22;6995;52.618;13.488;2023-02-18T20:40:26;6.40;1.00
13850;DHT22;6995;52.618;13.488;2023-02-18T20:42:52;6.40;1.00
13850;DHT22;6995;52.618;13.488;2023-02-18T20:45:18;6.30;1.00
13850;DHT22;6995;52.618;13.488;2023-02-18T20:47:43;6.30;1.00
13850;DHT22;6995;52.618;13.488;2023-02-18T20:50:09;6.40;1.00
13850;DHT22;6995;52.618;13.488;2023-02-18T20:52:35;6.40;1.00
13850;DHT22;6995;52.618;13.488;2023-02-18T20:55:04;6.40;1.00
13850;DHT22;6995;52.618;13.488;2023-02-18T20:57:29;6.30;1.00
13850;DHT22;6995;52.618;13.488;2023-02-18T20:59:55;6.40;1.00
13850;DHT22;6995;52.618;13.488;2023-02-18T21:02:22;6.40;1.00
13850;DHT22;6995;52.618;13.488;2023-02-18T21:04:48;6.40;1.00
13850;DHT22;6995;52.618;13.488;2023-02-18T21:07:14;6.30;1.00
13850;DHT22;6995;52.618;13.488;2023-02-18T21:09:39;6.30;1.00
13850;DHT22;6995;52.618;13.488;2023-02-18T21:12:25;6.40;1.00
13850;DHT22;6995;52.618;13.488;2023-02-18T21:14:50;6.30;1.00
13850;DHT22;6995;52.618;13.488;2023-02-18T21:17:16;6.30;1.00
13850;DHT22;6995;52.618;13.488;2023-02-18T21:19:42;6.30;1.00
13850;DHT22;6995;52.618;13.488;2023-02-18T21:22:07;6.30;1.00
13850;DHT22;6995;52.618;13.488;2023-02-18T21:24:33;6.30;1.00
13850;DHT22;6995;52.618;13.488;2023-02-18T21:26:59;6.30;1.00
13850;DHT22;6995;52.618;13.488;2023-02-18T21:29:24;6.20;1.00
13850;DHT22;6995;52.618;13.488;2023-02-18T21:31:50;6.20;1.00
13850;DHT22;6995;52.618;13.488;2023-02-18T21:34:16;6.20;1.00
13850;DHT22;6995;52.618;13.488;2023-02-18T21:36:42;6.10;1.00
13850;DHT22;6995;52.618;13.488;2023-02-18T21:39:09;6.10;1.00
13850;DHT22;6995;52.618;13.488;2023-02-18T21:41:36;6.10;1.00
13850;DHT22;6995;52.618;13.488;2023-02-18T21:44:02;6.00;1.00
13850;DHT22;6995;52.618;13.488;2023-02-18T21:46:30;6.00;1.00
13850;DHT22;6995;52.618;13.488;2023-02-18T21:48:56;6.00;1.00
13850;DHT22;6995;52.618;13.488;2023-02-18T21:54:17;6.00;1.00
13850;DHT22;6995;52.618;13.488;2023-02-18T21:56:43;6.00;1.00
13850;DHT22;6995;52.618;13.488;2023-02-18T21:59:09;6.00;1.00
13850;DHT22;6995;52.618;13.488;2023-02-18T22:01:34;6.00;6.00
13850;DHT22;6995;52.618;13.488;2023-02-18T22:04:00;5.90;1.00
13850;DHT22;6995;52.618;13.488;2023-02-18T22:06:26;5.90;1.00
13850;DHT22;6995;52.618;13.488;2023-02-18T22:08:51;5.90;1.00
13850;DHT22;6995;52.618;13.488;2023-02-18T22:11:17;5.90;1.00
13850;DHT22;6995;52.618;13.488;2023-02-18T22:13:43;5.90;1.00
13850;DHT22;6995;52.618;13.488;2023-02-18T22:16:08;5.90;1.00
13850;DHT22;6995;52.618;13.488;2023-02-18T22:18:34;5.90;1.00
13850;DHT22;6995;52.618;13.488;2023-02-18T22:21:04;5.90;1.00
13850;DHT22;6995;52.618;13.488;2023-02-18T22:23:30;5.90;1.00
13850;DHT22;6995;52.618;13.488;2023-02-18T22:25:56;5.90;1.00
13850;DHT22;6995;52.618;13.488;2023-02-18T22:28:21;5.90;1.00
13850;DHT22;6995;52.618;13.488;2023-02-18T22:30:47;6.00;1.00
13850;DHT22;6995;52.618;13.488;2023-02-18T22:33:13;6.00;1.00
13850;DHT22;6995;52.618;13.488;2023-02-18T22:35:38;6.00;1.00
13850;DHT22;6995;52.618;13.488;2023-02-18T22:38:04;5.90;1.00
13850;DHT22;6995;52.618;13.488;2023-02-18T22:40:30;5.90;1.00
13850;DHT22;6995;52.618;13.488;2023-02-18T22:42:55;5.90;1.00
13850;DHT22;6995;52.618;13.488;2023-02-18T22:45:21;5.90;1.00
13850;DHT22;6995;52.618;13.488;2023-02-18T22:47:49;5.90;1.00
13850;DHT22;6995;52.618;13.488;2023-02-18T22:50:15;5.90;1.00
13850;DHT22;6995;52.618;13.488;2023-02-18T22:52:41;5.90;1.00
13850;DHT22;6995;52.618;13.488;2023-02-18T22:55:07;5.90;1.00
13850;DHT22;6995;52.618;13.488;2023-02-18T22:57:32;5.90;1.00
13850;DHT22;6995;52.618;13.488;2023-02-18T22:59:58;5.90;1.00
13850;DHT22;6995;52.618;13.488;2023-02-18T23:02:24;5.90;1.00
13850;DHT22;6995;52.618;13.488;2023-02-18T23:04:53;6.00;1.00
13850;DHT22;6995;52.618;13.488;2023-02-18T23:07:18;5.90;1.00
13850;DHT22;6995;52.618;13.488;2023-02-18T23:09:47;5.90;1.00
13850;DHT22;6995;52.618;13.488;2023-02-18T23:12:13;6.00;1.00
13850;DHT22;6995;52.618;13.488;2023-02-18T23:14:38;6.00;1.00
13850;DHT22;6995;52.618;13.488;2023-02-18T23:17:04;6.00;1.00
13850;DHT22;6995;52.618;13.488;2023-02-18T23:19:43;6.00;1.00
13850;DHT22;6995;52.618;13.488;2023-02-18T23:25:47;6.00;1.00
13850;DHT22;6995;52.618;13.488;2023-02-18T23:28:15;6.00;1.00
13850;DHT22;6995;52.618;13.488;2023-02-18T23:30:41;6.00;1.00
13850;DHT22;6995;52.618;13.488;2023-02-18T23:33:09;6.00;1.00
13850;DHT22;6995;52.618;13.488;2023-02-18T23:35:37;6.00;1.00
13850;DHT22;6995;52.618;13.488;2023-02-18T23:38:03;6.00;1.00
13850;DHT22;6995;52.618;13.488;2023-02-18T23:40:29;5.90;1.00
13850;DHT22;6995;52.618;13.488;2023-02-18T23:42:55;5.90;1.00
13850;DHT22;6995;52.618;13.488;2023-02-18T23:45:21;5.90;1.00
13850;DHT22;6995;52.618;13.488;2023-02-18T23:47:47;5.90;1.00
13850;DHT22;6995;52.618;13.488;2023-02-18T23:50:13;5.90;1.00
13850;DHT22;6995;52.618;13.488;2023-02-18T23:52:46;5.80;1.00
13850;DHT22;6995;52.618;13.488;2023-02-18T23:55:15;5.80;1.00
13850;DHT22;6995;52.618;13.488;2023-02-18T23:57:46;5.90;1.00
